Time;durP1;ratioP1;P1;durP2;ratioP2;P2;SDS_P1;SDS_P2;PMS_P1;PMS_P2;Temp;Humidity;BMP_temperature;BMP_pressure;BME280_temperature;BME280_humidity;BME280_pressure;Samples;Min_cycle;Max_cycle;Signal;HPM_P1;HPM_P2
2021/10/19 00:01:55;;;;;;;10.66;8.36;;;;;;;6.68;91.45;100022.97;2324561;66;78407;-80
2021/10/19 00:05:21;;;;;;;14.21;9.56;;;;;;;6.75;91.22;100029.13;2326305;68;20417;-81
2021/10/19 00:08:41;;;;;;;14.24;9.90;;;;;;;6.77;91.29;100027.44;2326999;69;20310;-80
2021/10/19 00:12:35;;;;;;;14.24;10.30;;;;;;;6.83;91.01;100023.28;2327557;68;20289;-81
2021/10/19 00:16:04;;;;;;;14.71;9.00;;;;;;;6.90;90.82;100026.88;2323342;69;20299;-81
2021/10/19 00:19:38;;;;;;;12.06;8.56;;;;;;;6.88;90.98;100029.41;2329536;69;20454;-80
2021/10/19 00:23:37;;;;;;;11.13;8.36;;;;;;;6.90;91.22;100019.13;2327706;68;20335;-80
2021/10/19 00:27:23;;;;;;;11.18;8.41;;;;;;;6.94;91.19;100018.34;2319521;69;20347;-81
2021/10/19 00:30:42;;;;;;;13.55;9.04;;;;;;;6.98;91.17;100020.13;2325605;69;20283;-80
2021/10/19 00:34:35;;;;;;;12.41;8.70;;;;;;;6.98;90.92;100026.16;2332908;68;20676;-80
2021/10/19 00:51:52;;;;;;;10.16;7.84;;;;;;;7.04;92.04;100022.00;2325917;69;20480;-80
2021/10/19 00:54:55;;;;;;;12.66;8.01;;;;;;;7.04;92.08;100014.25;2333372;68;20293;-81
2021/10/19 01:06:33;;;;;;;12.24;8.13;;;;;;;7.08;92.50;100019.50;2323375;69;20362;-81
2021/10/19 01:10:34;;;;;;;12.19;8.54;;;;;;;7.13;92.62;100015.28;2327983;69;20344;-81
2021/10/19 01:14:33;;;;;;;12.29;8.27;;;;;;;7.13;92.58;100004.06;2327896;69;20337;-81
2021/10/19 01:34:46;;;;;;;12.04;8.54;;;;;;;7.38;92.62;99998.53;2343741;68;20278;-81
2021/10/19 01:37:49;;;;;;;12.91;9.11;;;;;;;7.44;92.43;99993.47;2336133;69;20296;-82
2021/10/19 01:40:54;;;;;;;12.49;8.48;;;;;;;7.47;92.48;99992.66;2348384;68;20324;-82
2021/10/19 01:43:58;;;;;;;13.55;9.20;;;;;;;7.51;92.39;99987.56;2335622;69;20286;-81
2021/10/19 01:47:01;;;;;;;11.84;8.76;;;;;;;7.57;92.17;99985.09;2330745;69;20266;-81
2021/10/19 01:50:04;;;;;;;13.49;9.24;;;;;;;7.61;92.05;99985.16;2335199;69;20283;-81
2021/10/19 01:53:09;;;;;;;14.01;9.35;;;;;;;7.65;91.90;99989.50;2331999;69;20425;-81
2021/10/19 01:56:12;;;;;;;12.82;9.54;;;;;;;7.69;91.65;99981.84;2340222;69;20295;-81
2021/10/19 01:59:15;;;;;;;13.16;8.63;;;;;;;7.71;91.69;99974.97;2329336;69;20245;-80
2021/10/19 02:02:17;;;;;;;11.74;8.40;;;;;;;7.74;91.79;99985.38;2342704;68;20245;-81
2021/10/19 02:05:20;;;;;;;12.20;8.35;;;;;;;7.76;91.84;99975.94;2335684;68;20252;-81
2021/10/19 02:08:23;;;;;;;12.81;8.89;;;;;;;7.75;92.03;99968.16;2333902;68;20289;-81
2021/10/19 02:11:25;;;;;;;11.68;8.86;;;;;;;7.76;92.02;99963.00;2332323;69;20229;-82
2021/10/19 02:14:28;;;;;;;10.95;8.94;;;;;;;7.80;91.80;99959.63;2333052;69;20329;-81
2021/10/19 02:17:31;;;;;;;13.74;9.50;;;;;;;7.84;91.76;99958.81;2333133;66;40881;-81
2021/10/19 02:20:36;;;;;;;10.64;8.40;;;;;;;7.86;91.65;99970.06;2334857;68;20245;-81
2021/10/19 02:23:39;;;;;;;10.75;8.29;;;;;;;7.84;91.79;99960.53;2340796;68;20244;-81
2021/10/19 02:26:42;;;;;;;10.68;8.45;;;;;;;7.85;92.02;99967.44;2339628;69;20280;-82
2021/10/19 02:29:45;;;;;;;11.11;8.40;;;;;;;7.85;92.22;99957.97;2347753;68;20293;-82
2021/10/19 02:32:50;;;;;;;10.06;8.02;;;;;;;7.85;92.40;99957.97;2341520;66;49229;-82
2021/10/19 02:35:53;;;;;;;10.46;8.44;;;;;;;7.87;92.62;99956.28;2333395;69;20278;-82
2021/10/19 02:38:56;;;;;;;11.48;8.60;;;;;;;7.91;92.72;99951.19;2330922;69;20249;-81
2021/10/19 02:41:59;;;;;;;11.34;8.94;;;;;;;7.94;92.67;99941.75;2326893;69;20323;-82
2021/10/19 02:45:07;;;;;;;11.98;9.13;;;;;;;7.99;92.51;99945.25;2328980;68;20285;-82
2021/10/19 02:48:10;;;;;;;10.54;8.16;;;;;;;8.04;92.23;99942.72;2324867;66;32866;-82
2021/10/19 02:51:13;;;;;;;11.44;8.32;;;;;;;8.07;92.20;99958.28;2335192;69;20120;-82
2021/10/19 02:54:16;;;;;;;10.77;8.23;;;;;;;8.07;92.52;99961.75;2336465;69;20266;-82
2021/10/19 02:57:23;;;;;;;10.79;8.56;;;;;;;8.10;92.61;99963.53;2327117;69;20287;-82
2021/10/19 03:00:42;;;;;;;9.89;8.04;;;;;;;8.09;92.81;99965.25;2331746;69;20316;-83
2021/10/19 03:04:14;;;;;;;10.14;7.93;;;;;;;8.13;93.06;99969.63;2327313;69;20261;-81
2021/10/19 03:07:17;;;;;;;11.56;8.49;;;;;;;8.19;92.98;99953.31;2340556;68;20342;-83
2021/10/19 03:10:26;;;;;;;11.68;8.48;;;;;;;8.24;92.71;99953.34;2328787;68;20273;-83
2021/10/19 03:13:53;;;;;;;10.16;8.24;;;;;;;8.27;92.68;99958.59;2325912;69;20343;-83
2021/10/19 03:17:25;;;;;;;10.15;7.93;;;;;;;8.31;92.78;99965.56;2311466;69;20265;-82
2021/10/19 03:20:42;;;;;;;12.63;8.19;;;;;;;8.33;92.59;99963.84;2307206;69;20375;-83
2021/10/19 03:24:20;;;;;;;10.05;8.05;;;;;;;8.37;92.23;99966.53;2311148;69;20263;-83
2021/10/19 03:27:57;;;;;;;10.84;8.52;;;;;;;8.40;92.11;99966.56;2315334;70;20321;-84
2021/10/19 03:31:13;;;;;;;9.90;8.06;;;;;;;8.42;92.48;99971.75;2307716;69;20273;-82
2021/10/19 03:34:16;;;;;;;13.96;8.85;;;;;;;8.44;92.77;99975.25;2313297;69;20258;-81
2021/10/19 03:37:19;;;;;;;10.41;8.70;;;;;;;8.44;92.90;99981.31;2301716;70;20262;-81
2021/10/19 03:40:22;;;;;;;11.18;8.91;;;;;;;8.44;93.03;99976.13;2302073;70;20327;-81
2021/10/19 03:43:25;;;;;;;11.16;8.60;;;;;;;8.44;93.21;99977.84;2309530;70;20254;-82
2021/10/19 03:46:27;;;;;;;10.46;8.31;;;;;;;8.45;93.22;99979.59;2305009;67;24757;-80
2021/10/19 03:49:30;;;;;;;11.40;8.63;;;;;;;8.45;93.36;99984.75;2298521;70;20322;-80
2021/10/19 03:52:33;;;;;;;12.34;8.77;;;;;;;8.45;93.52;99975.28;2290841;70;20371;-80
2021/10/19 03:55:36;;;;;;;12.11;9.01;;;;;;;8.45;93.57;99972.69;2296646;70;20293;-81
2021/10/19 03:58:38;;;;;;;11.06;8.60;;;;;;;8.46;93.70;99971.84;2301678;70;20299;-81
2021/10/19 04:01:41;;;;;;;10.39;8.74;;;;;;;8.50;93.86;99969.28;2321419;66;40559;-82
2021/10/19 04:04:44;;;;;;;10.40;8.30;;;;;;;8.49;93.91;99955.47;2336734;69;20129;-81
2021/10/19 04:07:47;;;;;;;10.30;8.31;;;;;;;8.52;94.07;99959.81;2317135;69;20371;-80
2021/10/19 04:10:50;;;;;;;8.74;7.79;;;;;;;8.55;94.24;99962.44;2332869;68;20108;-83
2021/10/19 04:13:53;;;;;;;8.35;7.43;;;;;;;8.58;94.33;99954.72;2337934;68;20312;-81
2021/10/19 04:16:55;;;;;;;11.29;8.26;;;;;;;8.62;94.18;99953.94;2338513;68;20244;-82
2021/10/19 04:19:58;;;;;;;11.09;8.29;;;;;;;8.67;94.03;99971.25;2345141;68;20268;-82
2021/10/19 04:23:01;;;;;;;10.68;8.29;;;;;;;8.72;94.17;99956.63;2342879;68;20270;-82
2021/10/19 04:26:04;;;;;;;9.19;8.24;;;;;;;8.76;94.40;99968.75;2334767;68;20132;-82
2021/10/19 04:29:07;;;;;;;9.46;8.32;;;;;;;8.82;94.56;99961.94;2348691;69;20088;-80
2021/10/19 04:32:10;;;;;;;11.64;8.44;;;;;;;8.84;94.83;99966.28;2340882;66;34667;-81
2021/10/19 04:35:13;;;;;;;8.86;7.16;;;;;;;8.92;95.32;99974.13;2341143;68;20317;-81
2021/10/19 04:38:16;;;;;;;10.63;7.99;;;;;;;8.95;95.26;99972.44;2339361;68;20260;-82
2021/10/19 04:41:19;;;;;;;9.07;7.66;;;;;;;8.98;95.09;99958.66;2333259;68;20180;-81
2021/10/19 04:44:22;;;;;;;10.20;7.63;;;;;;;9.01;94.90;99958.69;2341120;68;20167;-82
2021/10/19 04:47:24;;;;;;;9.26;7.55;;;;;;;9.04;94.88;99957.00;2355266;66;39632;-80
2021/10/19 04:50:28;;;;;;;8.30;7.35;;;;;;;9.06;94.92;99959.59;2340594;68;20120;-81
2021/10/19 04:53:31;;;;;;;14.63;8.50;;;;;;;9.08;94.82;99960.50;2342104;68;20104;-82
2021/10/19 04:56:34;;;;;;;11.13;8.29;;;;;;;9.09;94.72;99968.28;2330379;69;20105;-81
2021/10/19 04:59:37;;;;;;;8.82;7.11;;;;;;;9.10;95.01;99969.13;2333968;68;20282;-82
2021/10/19 05:02:44;;;;;;;7.39;6.66;;;;;;;9.12;95.06;99958.78;2346859;68;20105;-81
2021/10/19 05:05:47;;;;;;;10.80;8.32;;;;;;;9.15;95.01;99957.09;2352860;68;20134;-82
2021/10/19 05:18:02;;;;;;;8.68;7.53;;;;;;;9.34;95.95;99948.69;2312438;69;20288;-84
2021/10/19 05:22:18;;;;;;;8.55;7.32;;;;;;;9.39;96.12;99949.59;2315332;69;20293;-82
2021/10/19 06:57:30;;;;;;;10.31;9.11;;;;;;;10.92;100.00;99927.16;2298293;69;20203;31
2021/10/19 07:00:50;;;;;;;9.98;8.26;;;;;;;10.98;100.00;99941.94;2304006;69;20227;-83
2021/10/19 07:07:50;;;;;;;9.70;8.70;;;;;;;11.09;100.00;99925.47;2336400;68;20231;31
2021/10/19 07:12:09;;;;;;;10.60;9.06;;;;;;;11.14;99.92;99935.91;2303019;69;20306;31
2021/10/19 07:15:57;;;;;;;10.25;9.19;;;;;;;11.20;99.44;99926.38;2307432;69;21167;31
2021/10/19 07:19:10;;;;;;;14.48;10.80;;;;;;;11.27;99.34;99924.66;2301771;74;20107;-85
2021/10/19 07:23:02;;;;;;;;;;;;;;;11.31;99.31;99920.31;2308400;69;20106;-85
2021/10/19 13:48:20;;;;;;;5.78;3.10;;;;;;;19.46;65.33;99787.56;2310154;68;20167;-79
2021/10/19 13:51:27;;;;;;;4.28;2.78;;;;;;;19.47;66.57;99781.38;2321473;69;20277;-79
2021/10/19 13:54:33;;;;;;;3.03;2.76;;;;;;;19.48;67.11;99778.69;2318930;68;20224;-79
2021/10/19 13:58:11;;;;;;;5.11;2.92;;;;;;;19.54;67.14;99767.13;2315354;69;20205;-79
2021/10/19 14:01:19;;;;;;;3.59;2.94;;;;;;;19.64;67.79;99763.25;2318708;69;20770;-79
2021/10/19 14:13:06;;;;;;;3.56;2.76;;;;;;;19.98;66.94;99756.78;2319273;68;20155;-78
2021/10/19 14:16:40;;;;;;;3.75;2.92;;;;;;;19.86;64.00;99758.06;2307243;69;435951;-78
2021/10/19 14:19:56;;;;;;;4.04;2.65;;;;;;;19.71;64.68;99755.97;2319359;69;20165;-78
2021/10/19 14:23:13;;;;;;;3.34;2.58;;;;;;;19.78;64.94;99763.63;2313021;68;20199;-78
2021/10/19 14:26:57;;;;;;;4.10;2.55;;;;;;;19.83;64.54;99755.56;2317772;69;20143;-79
2021/10/19 14:35:35;;;;;;;7.89;2.75;;;;;;;19.75;64.11;99754.94;2292275;69;21453;-79
2021/10/19 14:39:23;;;;;;;5.94;2.40;;;;;;;19.74;64.39;99754.09;2317363;69;20204;-79
2021/10/19 14:46:13;;;;;;;3.63;2.65;;;;;;;19.71;63.89;99754.19;2312497;66;263369;-78
2021/10/19 14:54:09;;;;;;;5.03;2.11;;;;;;;19.65;63.15;99735.13;2321292;68;20148;-78
2021/10/19 15:03:23;;;;;;;2.45;2.26;;;;;;;19.45;63.94;99720.00;2238169;69;5917072;-77
2021/10/19 15:07:14;;;;;;;2.59;2.39;;;;;;;19.33;64.97;99724.78;2302200;69;20505;-77
2021/10/19 15:10:17;;;;;;;4.01;2.21;;;;;;;19.22;65.30;99712.91;2301911;69;20161;-77
2021/10/19 15:13:24;;;;;;;2.45;2.28;;;;;;;19.18;65.63;99712.13;2302563;69;20555;-78
2021/10/19 15:17:26;;;;;;;3.86;2.17;;;;;;;19.10;66.28;99715.97;2300761;66;20683;-77
2021/10/19 15:21:14;;;;;;;5.09;2.56;;;;;;;19.06;67.00;99717.84;2297437;69;20833;-78
2021/10/19 15:24:20;;;;;;;2.36;2.16;;;;;;;19.10;67.51;99702.81;2302165;69;20193;-78
2021/10/19 15:31:52;;;;;;;3.51;2.77;;;;;;;18.98;66.89;99707.56;1843275;66;35792172;-77
2021/10/19 15:39:15;;;;;;;2.86;2.53;;;;;;;18.82;68.74;99695.81;2301622;69;20157;-79
2021/10/19 15:42:18;;;;;;;3.53;2.75;;;;;;;18.63;68.80;99697.34;2308749;69;20765;-79
2021/10/19 15:45:21;;;;;;;6.22;2.95;;;;;;;18.45;69.37;99692.63;2315181;69;20163;-79
2021/10/19 15:49:09;;;;;;;3.74;2.78;;;;;;;18.32;69.07;99697.44;2317967;69;20233;-79
2021/10/19 15:52:13;;;;;;;5.63;3.05;;;;;;;18.09;70.16;99684.97;2316485;69;20231;-79
2021/10/19 15:55:16;;;;;;;4.54;2.78;;;;;;;17.88;70.63;99689.09;2315930;68;20204;-79
2021/10/19 15:58:21;;;;;;;5.46;3.03;;;;;;;17.70;71.96;99679.13;2315759;69;20197;-79
2021/10/19 16:01:29;;;;;;;6.19;2.99;;;;;;;17.48;73.06;99687.59;2311824;66;23001;-79
2021/10/19 16:04:33;;;;;;;4.93;2.44;;;;;;;17.25;74.61;99678.63;2314981;68;20541;-79
2021/10/19 16:07:52;;;;;;;7.01;2.17;;;;;;;17.00;76.12;99674.00;2319601;69;20167;-80
2021/10/19 16:11:17;;;;;;;6.55;2.83;;;;;;;16.75;77.16;99675.53;2304549;69;20159;-80
2021/10/19 16:14:34;;;;;;;8.51;3.11;;;;;;;16.54;78.04;99677.75;2314944;68;20180;-80
2021/10/19 16:17:42;;;;;;;3.72;2.63;;;;;;;16.39;78.31;99672.03;1650919;66;51315727;-80
2021/10/19 16:21:01;;;;;;;4.54;2.74;;;;;;;16.22;79.18;99667.16;2317665;69;20173;-80
2021/10/19 16:24:47;;;;;;;7.48;2.74;;;;;;;16.09;79.44;99658.72;2317973;68;20270;-80
2021/10/19 16:28:41;;;;;;;6.25;2.50;;;;;;;15.94;79.96;99664.28;2315386;69;20173;-80
2021/10/19 16:31:55;;;;;;;4.89;2.79;;;;;;;15.78;80.66;99661.13;2291314;69;999767;-80
2021/10/19 16:35:13;;;;;;;4.15;2.38;;;;;;;15.61;81.37;99664.09;2318324;68;20211;-80
2021/10/19 16:38:52;;;;;;;4.06;2.70;;;;;;;15.46;81.72;99666.16;2313574;69;20751;-79
2021/10/19 16:42:06;;;;;;;5.60;2.66;;;;;;;15.36;82.38;99658.47;2318984;69;20159;-80
2021/10/19 16:45:41;;;;;;;4.88;3.03;;;;;;;15.27;82.73;99665.66;2312002;69;20151;-80
2021/10/19 16:49:18;;;;;;;3.84;2.54;;;;;;;15.15;83.13;99666.72;2318584;69;20147;-80
2021/10/19 16:52:44;;;;;;;3.95;2.41;;;;;;;15.01;83.66;99666.13;2317593;69;20181;-79
2021/10/19 16:55:52;;;;;;;5.94;3.01;;;;;;;14.84;83.92;99674.25;2307342;69;20193;-80
2021/10/19 16:58:55;;;;;;;3.84;2.96;;;;;;;14.70;84.36;99671.88;2304508;69;20268;-79
2021/10/19 17:01:59;;;;;;;4.72;2.83;;;;;;;14.60;84.96;99674.69;2314175;66;29971;-79
2021/10/19 17:05:15;;;;;;;6.97;2.76;;;;;;;14.51;85.14;99686.97;2318049;68;20173;-79
2021/10/19 17:08:21;;;;;;;7.20;3.08;;;;;;;14.44;85.55;99687.97;2317354;69;20185;-79
2021/10/19 17:11:28;;;;;;;5.93;2.90;;;;;;;14.34;85.96;99680.25;2322345;68;20700;-79
2021/10/19 17:14:47;;;;;;;5.20;2.92;;;;;;;14.27;86.39;99679.50;2318874;68;20177;-79
2021/10/19 17:18:29;;;;;;;4.45;3.08;;;;;;;14.21;86.90;99677.00;2304746;69;868541;-79
2021/10/19 17:21:51;;;;;;;4.47;3.55;;;;;;;14.24;87.28;99681.28;2318978;69;20297;-79
2021/10/19 17:25:10;;;;;;;6.03;3.96;;;;;;;14.23;87.61;99688.28;2318275;68;20172;-79
2021/10/19 17:28:25;;;;;;;6.31;4.06;;;;;;;14.25;87.34;99681.28;2304331;69;21244;-79
2021/10/19 17:31:33;;;;;;;6.10;3.42;;;;;;;14.31;87.43;99688.16;2305259;69;995905;-79
2021/10/19 17:34:55;;;;;;;4.55;3.40;;;;;;;14.25;87.09;99699.56;2319287;68;20160;-79
2021/10/19 17:38:06;;;;;;;3.60;2.96;;;;;;;14.24;87.30;99694.34;2318552;69;20181;-79
2021/10/19 17:41:14;;;;;;;4.05;3.38;;;;;;;14.12;87.12;99698.00;2319094;69;20178;-80
2021/10/19 17:44:22;;;;;;;6.53;3.45;;;;;;;14.04;87.51;99687.66;2314606;69;20287;-79
2021/10/19 17:47:43;;;;;;;5.50;3.21;;;;;;;13.93;87.58;99691.28;2319490;66;20179;-79
2021/10/19 17:50:50;;;;;;;4.55;3.26;;;;;;;13.83;87.91;99693.19;2320551;69;20148;-79
2021/10/19 17:54:00;;;;;;;5.66;3.21;;;;;;;13.73;88.17;99694.16;2318056;68;20167;-80
2021/10/19 17:57:06;;;;;;;6.56;3.00;;;;;;;13.64;88.37;99689.91;2318964;69;20181;-79
2021/10/19 18:00:14;;;;;;;7.53;3.98;;;;;;;13.56;88.46;99684.78;2316406;69;20152;-80
2021/10/19 18:03:18;;;;;;;3.67;3.26;;;;;;;13.49;88.90;99693.59;2308711;68;971545;-80
2021/10/19 18:06:25;;;;;;;5.15;3.28;;;;;;;13.43;88.83;99687.53;2318892;69;20313;-79
2021/10/19 18:09:34;;;;;;;4.82;3.36;;;;;;;13.33;88.64;99680.72;2317504;69;20254;-80
2021/10/19 18:12:47;;;;;;;7.36;3.61;;;;;;;13.27;90.12;99682.50;2309631;69;20331;-80
2021/10/19 18:15:50;;;;;;;3.97;3.30;;;;;;;13.26;90.53;99691.19;2313830;66;25193;-80
2021/10/19 18:18:53;;;;;;;4.24;3.78;;;;;;;13.27;90.71;99687.72;2313527;69;20176;-79
2021/10/19 18:21:55;;;;;;;5.07;3.33;;;;;;;13.23;90.65;99686.03;2319369;69;20152;-80
2021/10/19 18:25:00;;;;;;;4.21;3.67;;;;;;;13.18;90.29;99681.75;2318543;68;20267;-80
2021/10/19 18:28:04;;;;;;;3.92;3.01;;;;;;;13.11;90.04;99682.66;2317557;69;20159;-79
2021/10/19 18:31:07;;;;;;;3.86;3.46;;;;;;;13.05;90.50;99680.97;2317013;66;21456;-79
2021/10/19 18:34:10;;;;;;;3.50;2.72;;;;;;;12.96;90.37;99676.72;2318541;68;20151;-80
2021/10/19 18:37:15;;;;;;;4.60;3.08;;;;;;;12.91;90.38;99683.69;2318029;69;20143;-79
2021/10/19 18:40:20;;;;;;;3.34;2.84;;;;;;;12.86;90.47;99671.59;2318707;69;20638;-79
2021/10/19 18:43:24;;;;;;;4.04;3.34;;;;;;;12.78;90.51;99671.66;2317973;68;20181;-79
2021/10/19 18:46:27;;;;;;;4.30;3.39;;;;;;;12.81;91.44;99668.16;2316577;66;21310;-79
2021/10/19 18:49:31;;;;;;;6.65;3.33;;;;;;;12.84;90.98;99665.53;2317989;69;20148;-79
2021/10/19 18:52:35;;;;;;;5.34;3.10;;;;;;;12.82;90.48;99665.53;2319537;69;21223;-79
2021/10/19 18:55:40;;;;;;;4.63;3.47;;;;;;;12.75;90.79;99658.69;2312017;69;20820;-79
2021/10/19 18:58:44;;;;;;;5.05;3.56;;;;;;;12.85;91.28;99657.69;2311959;69;20151;-78
2021/10/19 19:01:47;;;;;;;4.29;3.45;;;;;;;12.92;90.54;99655.88;2314972;67;21007;-80
2021/10/19 19:04:52;;;;;;;3.54;3.14;;;;;;;12.86;90.40;99649.00;2319651;68;20197;-79
2021/10/19 19:08:00;;;;;;;4.15;3.16;;;;;;;12.81;90.17;99645.56;2316580;69;20164;-78
2021/10/19 19:11:06;;;;;;;3.80;3.20;;;;;;;12.73;89.88;99643.91;2321299;69;20197;-79
2021/10/19 19:14:15;;;;;;;4.89;3.40;;;;;;;12.64;89.73;99652.69;2319526;68;20184;-79
2021/10/19 19:17:22;;;;;;;5.54;2.70;;;;;;;12.59;90.05;99654.47;2316891;66;23676;-78
2021/10/19 19:20:26;;;;;;;3.55;2.97;;;;;;;12.51;90.11;99643.22;2317572;69;20622;-79
2021/10/19 19:23:32;;;;;;;6.07;3.19;;;;;;;12.49;90.30;99647.59;2313177;68;20679;-79
2021/10/19 19:26:41;;;;;;;4.97;3.24;;;;;;;12.40;90.04;99649.41;2310531;69;21004;-78
2021/10/19 19:29:46;;;;;;;3.84;2.99;;;;;;;12.31;89.98;99649.47;2318400;69;20653;-78
2021/10/19 19:32:58;;;;;;;6.28;3.01;;;;;;;12.26;90.42;99643.44;2318422;66;21051;-78
2021/10/19 19:36:03;;;;;;;4.09;3.15;;;;;;;12.19;90.61;99646.94;2314888;69;20263;-78
2021/10/19 19:39:07;;;;;;;3.92;3.03;;;;;;;12.15;90.81;99652.19;2319047;69;20135;-79
2021/10/19 19:42:35;;;;;;;5.35;2.78;;;;;;;12.09;90.95;99648.75;2318240;69;20826;-78
2021/10/19 19:45:55;;;;;;;3.53;2.69;;;;;;;12.04;90.94;99649.66;2316826;66;20180;-78
2021/10/19 19:48:59;;;;;;;3.25;2.94;;;;;;;11.91;90.79;99648.88;2320634;69;20236;-79
2021/10/19 19:52:06;;;;;;;7.11;3.19;;;;;;;11.90;90.68;99654.06;2318974;69;20147;-78
2021/10/19 19:55:11;;;;;;;3.44;2.53;;;;;;;11.90;90.79;99648.88;2315777;69;20337;-78
2021/10/19 19:58:15;;;;;;;6.05;2.91;;;;;;;11.90;91.22;99648.88;2319985;69;20140;-78
2021/10/19 20:01:18;;;;;;;2.83;2.45;;;;;;;11.92;90.83;99645.38;2316565;66;22486;-78
2021/10/19 20:04:25;;;;;;;3.74;2.45;;;;;;;11.96;90.46;99644.50;2318381;68;20189;-79
2021/10/19 20:07:30;;;;;;;5.01;2.89;;;;;;;11.93;90.02;99643.66;2317547;69;20544;-78
2021/10/19 20:10:33;;;;;;;3.79;2.60;;;;;;;11.87;89.79;99641.09;2318921;69;20160;-78
2021/10/19 20:13:39;;;;;;;4.06;2.67;;;;;;;11.87;89.56;99643.69;2318239;68;20156;-78
2021/10/19 20:16:47;;;;;;;2.87;2.67;;;;;;;11.80;89.70;99638.50;2315345;66;24376;-79
2021/10/19 20:19:53;;;;;;;2.88;2.25;;;;;;;11.77;89.39;99643.69;2317204;69;20379;-79
2021/10/19 20:23:01;;;;;;;2.59;2.39;;;;;;;11.72;89.23;99634.19;2313997;69;20748;-78
2021/10/19 20:26:03;;;;;;;2.38;2.17;;;;;;;11.71;89.27;99640.28;2318959;69;20197;-79
2021/10/19 20:29:07;;;;;;;3.63;2.90;;;;;;;11.74;89.30;99646.31;2313103;69;20237;-79
2021/10/19 20:32:11;;;;;;;3.21;2.56;;;;;;;11.76;89.03;99639.38;2314861;67;22223;-79
2021/10/19 20:35:19;;;;;;;6.06;2.45;;;;;;;11.81;88.83;99641.97;2316446;68;20155;-78
2021/10/19 20:38:22;;;;;;;2.96;2.66;;;;;;;11.86;88.67;99645.44;2317581;69;20205;-79
2021/10/19 20:41:26;;;;;;;2.85;2.63;;;;;;;11.86;88.11;99637.63;2317164;69;20151;-79
2021/10/19 20:44:32;;;;;;;2.50;2.29;;;;;;;11.94;88.60;99635.81;2316924;68;20226;-78
2021/10/19 20:47:36;;;;;;;4.03;2.31;;;;;;;11.95;88.29;99636.69;2314005;66;24835;-78
2021/10/19 20:50:42;;;;;;;2.83;2.49;;;;;;;11.92;88.18;99631.50;2317442;69;20173;-80
2021/10/19 20:53:45;;;;;;;2.65;2.44;;;;;;;11.91;88.14;99637.59;2317644;68;20351;-79
2021/10/19 20:56:48;;;;;;;4.11;2.34;;;;;;;11.88;87.65;99633.28;2316875;69;20255;-78
2021/10/19 20:59:52;;;;;;;6.20;2.66;;;;;;;11.84;88.03;99641.94;2316471;69;20728;-79
2021/10/19 21:02:55;;;;;;;2.58;2.34;;;;;;;11.80;88.15;99637.63;2313784;66;22392;-78
2021/10/19 21:06:01;;;;;;;2.53;2.33;;;;;;;11.74;88.21;99633.31;2318288;69;20221;-78
2021/10/19 21:09:03;;;;;;;3.51;2.42;;;;;;;11.67;88.52;99623.81;2318415;69;20240;-79
2021/10/19 21:12:10;;;;;;;2.96;2.66;;;;;;;11.58;88.75;99623.00;2315735;69;20187;-78
2021/10/19 21:15:16;;;;;;;3.26;2.50;;;;;;;11.56;89.34;99616.94;2316428;68;20637;-79
2021/10/19 21:18:19;;;;;;;5.44;3.35;;;;;;;11.52;89.46;99618.69;2322015;69;20160;-79
2021/10/19 21:21:22;;;;;;;2.24;2.08;;;;;;;11.48;89.74;99616.94;2317961;69;20148;-79
2021/10/19 21:24:25;;;;;;;3.84;2.30;;;;;;;11.53;90.05;99612.63;2318043;68;20168;-80
2021/10/19 21:27:27;;;;;;;9.48;2.38;;;;;;;11.50;89.93;99610.91;2312983;69;20160;-79
2021/10/19 21:30:30;;;;;;;2.74;2.34;;;;;;;11.48;90.54;99609.16;2317205;66;21699;-79
2021/10/19 21:33:34;;;;;;;2.72;2.50;;;;;;;11.53;90.42;99610.00;2317279;68;20710;-79
2021/10/19 21:36:38;;;;;;;3.26;2.06;;;;;;;11.58;89.73;99610.00;2313683;69;20151;-79
2021/10/19 21:39:40;;;;;;;4.45;2.41;;;;;;;11.57;89.19;99601.31;2319362;69;20243;-79
2021/10/19 21:42:44;;;;;;;2.83;2.49;;;;;;;11.53;89.04;99603.94;2318291;69;20432;-79
2021/10/19 21:45:47;;;;;;;3.50;2.75;;;;;;;11.49;89.38;99601.38;2318987;66;21946;-79
2021/10/19 21:48:50;;;;;;;2.66;2.20;;;;;;;11.48;89.03;99602.22;2318178;69;20864;-79
2021/10/19 21:51:53;;;;;;;3.11;2.51;;;;;;;11.47;88.71;99595.28;2317227;69;20147;-79
2021/10/19 21:54:56;;;;;;;3.83;3.53;;;;;;;11.48;88.48;99585.75;2317681;68;20591;-78
2021/10/19 21:58:00;;;;;;;3.51;2.29;;;;;;;11.51;88.15;99590.97;2319235;69;20620;-79
2021/10/19 22:01:03;;;;;;;3.28;2.20;;;;;;;11.49;88.17;99590.09;2316015;66;24207;-78
2021/10/19 22:04:06;;;;;;;5.03;2.30;;;;;;;11.55;87.94;99587.47;2316348;68;20156;-78
2021/10/19 22:07:09;;;;;;;4.81;2.41;;;;;;;11.60;87.44;99590.03;2318435;69;20140;-79
2021/10/19 22:10:12;;;;;;;3.67;2.55;;;;;;;11.64;87.08;99589.13;2316875;69;20177;-78
2021/10/19 22:13:14;;;;;;;2.47;2.14;;;;;;;11.68;86.66;99593.47;2317779;68;20234;-79
2021/10/19 22:16:20;;;;;;;2.99;2.11;;;;;;;11.75;85.98;99587.34;2315595;66;22000;-79
2021/10/19 22:19:44;;;;;;;4.01;2.24;;;;;;;11.76;85.68;99592.53;2314432;69;20151;-79
2021/10/19 22:22:49;;;;;;;5.40;2.30;;;;;;;11.75;85.36;99587.34;2317649;69;21096;-79
2021/10/19 22:29:13;;;;;;;4.96;2.38;;;;;;;11.73;85.29;99587.34;2317184;69;20148;-78
2021/10/19 22:32:16;;;;;;;3.76;2.29;;;;;;;11.78;85.02;99587.31;2315357;66;28642;-79
2021/10/19 22:35:18;;;;;;;4.28;2.31;;;;;;;11.77;84.73;99580.41;2317434;68;20177;-78
2021/10/19 22:38:21;;;;;;;3.22;2.45;;;;;;;11.71;84.92;99583.03;2318678;69;20160;-78
2021/10/19 22:41:24;;;;;;;3.14;2.24;;;;;;;11.64;86.05;99584.78;2318268;69;20558;-79
2021/10/19 22:44:27;;;;;;;4.59;2.35;;;;;;;11.59;86.70;99572.69;2317041;68;20225;-78
2021/10/19 22:47:29;;;;;;;3.25;1.94;;;;;;;11.57;86.63;99580.50;2315142;66;22465;-78
2021/10/19 22:50:32;;;;;;;2.67;2.11;;;;;;;11.50;87.42;99573.63;2317329;69;20180;-78
2021/10/19 22:53:35;;;;;;;2.66;2.29;;;;;;;11.49;87.54;99577.97;2318623;68;20185;-78
2021/10/19 22:56:39;;;;;;;3.69;2.80;;;;;;;11.47;87.55;99569.28;2318596;69;20144;-78
2021/10/19 22:59:41;;;;;;;2.30;2.08;;;;;;;11.42;87.76;99560.66;2319035;69;20172;-78
2021/10/19 23:02:44;;;;;;;2.81;2.01;;;;;;;11.39;87.94;99555.47;2317365;66;22418;-78
2021/10/19 23:05:47;;;;;;;3.39;2.22;;;;;;;11.31;88.20;99552.06;2317930;68;20156;-79
2021/10/19 23:08:49;;;;;;;5.57;2.06;;;;;;;11.26;88.52;99543.41;2317817;69;20143;-78
2021/10/19 23:11:52;;;;;;;3.74;2.22;;;;;;;11.20;89.01;99533.91;2318645;69;20232;-78
2021/10/19 23:14:54;;;;;;;2.29;2.09;;;;;;;11.17;89.09;99520.06;2318978;68;20152;-79
2021/10/19 23:17:57;;;;;;;2.95;2.11;;;;;;;11.12;89.09;99520.06;2317613;66;23919;-78
2021/10/19 23:20:59;;;;;;;5.28;2.46;;;;;;;11.09;89.11;99508.81;2316279;69;20173;-79
2021/10/19 23:24:03;;;;;;;3.47;2.40;;;;;;;11.06;89.25;99496.72;2320239;68;20651;-79
2021/10/19 23:27:06;;;;;;;3.08;2.22;;;;;;;11.08;89.05;99494.09;2320596;69;20191;-79
2021/10/19 23:30:10;;;;;;;3.67;2.64;;;;;;;11.06;89.72;99486.31;2317624;69;20144;-79
2021/10/19 23:33:13;;;;;;;3.65;2.21;;;;;;;11.09;89.47;99485.44;2314239;69;20208;-78
2021/10/19 23:36:16;;;;;;;2.71;2.14;;;;;;;11.08;89.27;99481.13;2318221;68;20592;-79
2021/10/19 23:39:19;;;;;;;3.01;2.20;;;;;;;11.07;88.90;99475.06;2318623;69;20606;-78
2021/10/19 23:42:23;;;;;;;3.49;1.96;;;;;;;11.14;88.31;99475.91;2317962;69;20712;-79
2021/10/19 23:45:26;;;;;;;2.78;2.05;;;;;;;11.15;87.77;99462.03;2317117;66;21793;-78
2021/10/19 23:48:28;;;;;;;2.76;1.85;;;;;;;11.19;87.33;99454.22;2318296;69;20213;-78
2021/10/19 23:51:31;;;;;;;3.15;1.75;;;;;;;11.24;86.99;99445.50;2318566;69;20240;-78
2021/10/19 23:54:34;;;;;;;3.01;1.85;;;;;;;11.27;86.74;99445.50;2317569;68;20140;-78
2021/10/19 23:57:39;;;;;;;4.94;2.11;;;;;;;11.37;86.38;99449.78;2313578;69;20140;-78
